Data for 11/26/2007

Time Sea-Level Adjusted Pressure Absolute Pressure Temperature Relative Humidity Dew Point   
(mb) (inHg) (mb) (inHg) (C) (F) (%) (C) (F)
00:05 1022 30.18 851 25.13 -2.9 26.8 58 -10 14
00:10 1022 30.18 851 25.13 -2.7 27.1 58 -9.9 14.2
00:15 1022 30.18 851 25.13 -2.7 27.1 58 -10 14.1
00:20 1022 30.18 851 25.13 -2.7 27.1 58 -10 14
00:25 1022 30.18 851 25.13 -2.8 26.9 57 -10.1 13.7
00:30 1022 30.18 851 25.13 -2.9 26.7 58 -10.2 13.7
00:35 1022 30.18 851 25.13 -3 26.7 57 -10.4 13.2
00:40 1022 30.18 851 25.13 -2.9 26.8 56 -10.5 13.1
00:45 1022 30.18 851 25.13 -3.1 26.4 58 -10.3 13.5
00:50 1022 30.18 851 25.13 -3.3 26.1 57 -10.6 12.9
00:55 1022 30.18 851 25.13 -3 26.6 56 -10.7 12.8
01:00 1022 30.18 851 25.13 -2.9 26.8 55 -10.8 12.6
01:05 1022 30.18 851 25.13 -2.8 27 54 -10.9 12.5
01:10 1022 30.18 851 25.13 -2.8 27 54 -10.9 12.3
01:15 1022 30.18 851 25.13 -2.7 27.1 54 -10.7 12.7
01:20 1022 30.18 851 25.13 -2.7 27.1 55 -10.5 13.1
01:25 1022 30.18 851 25.13 -2.9 26.8 57 -10.3 13.5
01:30 1022 30.18 851 25.13 -3.1 26.5 58 -10.2 13.7
01:35 1022 30.18 851 25.13 -3.2 26.2 60 -9.9 14.2
01:40 1022 30.18 852 25.16 -3.4 25.8 61 -9.8 14.3
01:45 1022 30.18 852 25.16 -3.8 25.1 64 -9.7 14.6
01:50 1022 30.18 852 25.16 -4.3 24.2 67 -9.5 14.9
01:55 1023 30.21 852 25.16 -4.8 23.4 68 -9.8 14.4
02:00 1023 30.21 852 25.16 -5 23.1 68 -10 14
02:05 1023 30.21 852 25.16 -4.8 23.4 65 -10.3 13.4
02:10 1023 30.21 852 25.16 -4.6 23.7 65 -10.2 13.6
02:15 1023 30.21 852 25.16 -4.4 24.1 62 -10.6 12.9
02:20 1023 30.21 852 25.16 -4 24.8 60 -10.7 12.8
02:25 1023 30.21 852 25.16 -4 24.8 60 -10.7 12.7
02:30 1023 30.21 852 25.16 -4.2 24.5 60 -10.9 12.4
02:35 1023 30.21 852 25.16 -4.2 24.4 59 -11 12.2
02:40 1023 30.21 852 25.16 -4.3 24.3 60 -10.9 12.4
02:45 1023 30.21 852 25.16 -4.5 24 60 -11 12.2
02:50 1023 30.21 852 25.16 -4.7 23.6 61 -11.1 12
02:55 1023 30.21 852 25.16 -4.8 23.3 61 -11.2 11.8
03:00 1023 30.21 852 25.16 -5.1 22.9 61 -11.4 11.5
03:05 1023 30.21 852 25.16 -5.1 22.8 61 -11.5 11.4
03:10 1023 30.21 852 25.16 -5.2 22.7 61 -11.5 11.3
03:15 1023 30.21 852 25.16 -5.3 22.5 61 -11.6 11.1
03:20 1023 30.21 852 25.16 -5.2 22.7 60 -11.7 11
03:25 1023 30.21 852 25.16 -5.6 21.9 62 -11.8 10.8
03:30 1023 30.21 852 25.16 -5.9 21.3 63 -12 10.5
03:35 1023 30.21 852 25.16 -5.7 21.8 61 -12 10.5
03:40 1023 30.21 852 25.16 -5.9 21.3 63 -11.9 10.7
03:45 1023 30.21 852 25.16 -6.3 20.6 64 -12.1 10.3
03:50 1022 30.18 852 25.16 -6.1 21.1 62 -12.1 10.2
03:55 1022 30.18 852 25.16 -5.9 21.4 61 -12.2 10.1
04:00 1022 30.18 852 25.16 -5.8 21.6 61 -12.2 10.1
04:05 1022 30.18 852 25.16 -5.7 21.7 61 -12.1 10.3
04:10 1022 30.18 852 25.16 -5.6 21.8 61 -12.1 10.2
04:15 1022 30.18 852 25.16 -5.6 21.8 61 -11.9 10.5
04:20 1022 30.18 852 25.16 -6.1 21 63 -12.1 10.2
04:25 1023 30.21 852 25.16 -6.3 20.6 63 -12.3 9.9
04:30 1023 30.21 852 25.16 -5.9 21.3 62 -12.1 10.2
04:35 1023 30.21 852 25.16 -5.9 21.3 62 -12.1 10.2
04:40 1023 30.21 852 25.16 -6.6 20.2 64 -12.2 10
04:45 1023 30.21 852 25.16 -6.3 20.7 63 -12.3 9.9
04:50 1023 30.21 852 25.16 -6.3 20.7 63 -12.2 10
04:55 1023 30.21 852 25.16 -6.6 20.1 64 -12.3 9.8
05:00 1023 30.21 852 25.16 -6.8 19.8 65 -12.3 9.8
05:05 1023 30.21 852 25.16 -6.7 20 65 -12.3 9.9
05:10 1023 30.21 852 25.16 -7 19.5 67 -12.1 10.1
05:15 1023 30.21 852 25.16 -7.3 19 70 -11.9 10.6
05:20 1023 30.21 852 25.16 -6.9 19.5 65 -12.5 9.4
05:25 1023 30.21 852 25.16 -6.4 20.5 64 -12.2 10.1
05:30 1023 30.21 852 25.16 -6.7 19.9 67 -11.8 10.7
05:35 1023 30.21 852 25.16 -7.5 18.5 73 -11.6 11.2
05:40 1023 30.21 852 25.16 -7.8 18 71 -12.1 10.1
05:45 1023 30.21 852 25.16 -7.8 18 71 -12.2 10.1
05:50 1023 30.21 852 25.16 -7.9 17.8 72 -12.2 10.1
05:55 1023 30.21 852 25.16 -8 17.6 72 -12.1 10.2
06:00 1023 30.21 852 25.16 -7.8 18.1 73 -11.8 10.7
06:05 1023 30.21 852 25.16 -7.3 18.8 69 -12 10.3
06:10 1023 30.21 852 25.16 -7.2 19 67 -12.4 9.8
06:15 1023 30.21 852 25.16 -7.5 18.6 67 -12.6 9.4
06:20 1023 30.21 852 25.16 -8 17.7 69 -12.7 9.2
06:25 1023 30.21 852 25.16 -8.1 17.4 69 -12.9 8.9
06:30 1023 30.21 852 25.16 -8.5 16.8 70 -13 8.5
06:35 1023 30.21 852 25.16 -8.5 16.8 71 -12.9 8.8
06:40 1023 30.21 852 25.16 -8.2 17.3 71 -12.5 9.5
06:45 1023 30.21 852 25.16 -8 17.6 71 -12.3 9.8
06:50 1023 30.21 852 25.16 -7.1 19.2 65 -12.7 9.2
06:55 1023 30.21 853 25.19 -6.8 19.8 64 -12.6 9.4
07:00 1024 30.24 853 25.19 -6.5 20.3 64 -12.3 9.9
07:05 1024 30.24 853 25.19 -6.5 20.3 64 -12.3 9.9
07:10 1024 30.24 853 25.19 -6.8 19.7 65 -12.5 9.6
07:15 1024 30.24 853 25.19 -6.9 19.7 64 -12.5 9.4
07:20 1024 30.24 853 25.19 -7 19.5 67 -12.2 10.1
07:25 1024 30.24 853 25.19 -7.5 18.4 70 -12.2 10.1
07:30 1024 30.24 853 25.19 -7.9 17.9 71 -12.2 10
07:35 1023 30.21 852 25.16 -7.9 17.7 72 -12.2 10
07:40 1023 30.21 852 25.16 -7.9 17.8 76 -11.4 11.4
07:45 1023 30.21 853 25.19 -7.4 18.6 69 -12.1 10.2
07:50 1024 30.24 853 25.19 -7.2 19.1 70 -11.8 10.8
07:55 1024 30.24 853 25.19 -6.8 19.7 66 -12.1 10.2
08:00 1024 30.24 853 25.19 -7 19.5 70 -11.6 11.2
08:05 1024 30.24 853 25.19 -7.6 18.3 70 -12.2 10
08:10 1024 30.24 853 25.19 -7.8 17.9 70 -12.3 9.9
08:15 1024 30.24 853 25.19 -7.9 17.7 71 -12.3 9.9
08:20 1024 30.24 853 25.19 -7.8 18 72 -12.1 10.3
08:25 1024 30.24 853 25.19 -7.7 18.2 69 -12.4 9.7
08:30 1024 30.24 853 25.19 -7.5 18.4 68 -12.4 9.7
08:35 1024 30.24 853 25.19 -7.4 18.7 68 -12.4 9.7
08:40 1024 30.24 853 25.19 -7.1 19.2 67 -12.3 9.8
08:45 1024 30.24 853 25.19 -6.7 20 65 -12.2 10.1
08:50 1024 30.24 854 25.22 -6.5 20.3 65 -12.1 10.2
08:55 1024 30.24 854 25.22 -6.6 20.2 67 -11.8 10.8
09:00 1024 30.24 854 25.22 -6.6 20.2 66 -12 10.4
09:05 1024 30.24 853 25.19 -6.3 20.6 64 -12 10.3
09:10 1024 30.24 853 25.19 -6.1 21 62 -12.2 10
09:15 1024 30.24 853 25.19 -5.7 21.7 63 -11.7 11
09:20 1024 30.24 853 25.19 -5.6 21.9 62 -11.7 10.9
09:25 1024 30.24 853 25.19 -5.2 22.6 60 -11.8 10.8
09:30 1024 30.24 853 25.19 -4.9 23.2 58 -12 10.5
09:35 1024 30.24 853 25.19 -4.5 23.9 57 -11.7 10.9
09:40 1024 30.24 853 25.19 -3.8 25.1 54 -11.8 10.8
09:45 1024 30.24 853 25.19 -3.4 25.9 54 -11.5 11.3
09:50 1024 30.24 853 25.19 -3.3 26 54 -11.4 11.4
09:55 1024 30.24 853 25.19 -2.5 27.4 50 -11.7 11
10:00 1024 30.24 853 25.19 -1.8 28.8 49 -11.2 11.8
10:05 1024 30.24 853 25.19 -1.8 28.7 49 -11.3 11.7
10:10 1024 30.24 854 25.22 -1.4 29.4 47 -11.3 11.7
10:15 1024 30.24 854 25.22 -1 30.3 45 -11.3 11.6
10:20 1025 30.27 854 25.22 -0.4 31.2 44 -11.2 11.8
10:25 1024 30.24 854 25.22 -0.4 31.3 45 -10.9 12.3
10:30 1025 30.27 854 25.22 -0.5 31.1 45 -11 12.1
10:35 1025 30.27 854 25.22 -1.2 29.9 51 -10 14
10:40 1024 30.24 854 25.22 -2.1 28.2 52 -10.6 12.9
10:45 1025 30.27 854 25.22 -2.1 28.3 52 -10.8 12.6
10:50 1024 30.24 854 25.22 -1.8 28.8 50 -10.8 12.5
10:55 1024 30.24 854 25.22 -1.7 29 50 -10.7 12.7
11:00 1025 30.27 854 25.22 -2 28.4 50 -11 12.2
11:05 1025 30.27 854 25.22 -1.3 29.7 47 -11.3 11.7
11:10 1024 30.24 854 25.22 -1.1 29.9 47 -11 12.2
11:15 1024 30.24 853 25.19 -1.7 28.9 49 -11 12.1
11:20 1024 30.24 853 25.19 -1.7 28.9 49 -11.1 12.1
11:25 1024 30.24 853 25.19 -1.8 28.7 49 -11.3 11.6
11:30 1024 30.24 853 25.19 -2.2 28 51 -11.1 12.1
11:35 1024 30.24 853 25.19 -2.7 27.1 55 -10.5 13.1
11:40 1024 30.24 853 25.19 -3.1 26.4 55 -11 12.2
11:45 1024 30.24 853 25.19 -3.3 26.1 54 -11.4 11.6
11:50 1024 30.24 853 25.19 -2.9 26.7 51 -11.7 10.9
11:55 1024 30.24 853 25.19 -2.4 27.7 51 -11.3 11.6
12:00 1024 30.24 853 25.19 -2.1 28.2 50 -11.2 11.8
12:05 1024 30.24 853 25.19 -1.8 28.8 49 -11.1 12
12:10 1024 30.24 853 25.19 -1.3 29.6 48 -11 12.2
12:15 1024 30.24 853 25.19 -0.8 30.5 46 -11.2 11.9
12:20 1023 30.21 853 25.19 -0.2 31.6 46 -10.4 13.4
12:25 1023 30.21 852 25.16 -0.2 31.7 45 -10.8 12.6
12:30 1023 30.21 852 25.16 -0.2 31.6 46 -10.5 13.1
12:35 1023 30.21 852 25.16 -0.1 31.9 45 -10.6 12.9
12:40 1023 30.21 852 25.16 -0.2 31.6 47 -10.4 13.3
12:45 1023 30.21 852 25.16 -0.1 31.8 46 -10.4 13.3
12:50 1023 30.21 852 25.16 -0.1 31.9 47 -10.1 13.9
12:55 1023 30.21 852 25.16 -0.3 31.5 48 -10.1 13.7
13:00 1023 30.21 852 25.16 -0.8 30.6 49 -10.2 13.7
13:05 1023 30.21 852 25.16 -1.1 30 50 -10.2 13.7
13:10 1023 30.21 852 25.16 -1.3 29.7 51 -10.1 13.9
13:15 1023 30.21 852 25.16 -1.2 29.8 51 -10.1 13.8
13:20 1023 30.21 852 25.16 -1.6 29.2 53 -10 14.1
13:25 1023 30.21 852 25.16 -1.7 29 53 -10.1 13.9
13:30 1023 30.21 852 25.16 -2 28.4 54 -10.1 13.8
13:35 1023 30.21 852 25.16 -2.2 28.1 54 -10.3 13.4
13:40 1022 30.18 852 25.16 -2 28.3 53 -10.3 13.4
13:45 1022 30.18 852 25.16 -2 28.4 53 -10.4 13.2
13:50 1022 30.18 851 25.13 -1.9 28.5 53 -10.3 13.5
13:55 1022 30.18 851 25.13 -1.7 28.9 53 -10.1 13.7
14:00 1022 30.18 851 25.13 -1.5 29.2 52 -10.2 13.6
14:05 1022 30.18 851 25.13 -1.4 29.4 51 -10.4 13.3
14:10 1022 30.18 851 25.13 -1.4 29.4 51 -10.3 13.5
14:15 1022 30.18 851 25.13 -1.2 29.9 50 -10.4 13.3
14:20 1022 30.18 851 25.13 -0.5 31.2 47 -10.3 13.4
14:25 1022 30.18 851 25.13 -0.4 31.3 47 -10.5 13.1
14:30 1022 30.18 851 25.13 -0.6 30.9 49 -10 14.1
14:35 1022 30.18 851 25.13 -0.9 30.4 51 -9.7 14.5
14:40 1021 30.15 851 25.13 -1 30.2 53 -9.4 15.1
14:45 1021 30.15 851 25.13 -1.4 29.6 54 -9.5 15
14:50 1021 30.15 850 25.1 -1.5 29.3 55 -9.5 15
14:55 1021 30.15 850 25.1 -1.6 29.2 55 -9.5 14.8
15:00 1021 30.15 850 25.1 -1.8 28.8 56 -9.4 15.2
15:05 1021 30.15 850 25.1 -1.7 29 55 -9.5 14.9
15:10 1021 30.15 850 25.1 -1.8 28.8 56 -9.4 15.1
15:15 1021 30.15 850 25.1 -1.8 28.8 57 -9.2 15.5
15:20 1021 30.15 850 25.1 -1.7 28.9 56 -9.4 15
15:25 1021 30.15 850 25.1 -1.5 29.2 56 -9.2 15.5
15:30 1021 30.15 850 25.1 -1.5 29.4 57 -9 15.9
15:35 1020 30.12 850 25.1 -1.5 29.3 56 -9.2 15.4
15:40 1020 30.12 850 25.1 -2.2 28 60 -9 15.8
15:45 1020 30.12 849 25.07 -2.5 27.4 59 -9.4 15.1
15:50 1020 30.12 850 25.1 -2.4 27.7 60 -9.1 15.7
15:55 1020 30.12 850 25.1 -2.2 28.1 61 -8.8 16.2
16:00 1020 30.12 849 25.07 -1.8 28.8 58 -9.1 15.6
16:05 1020 30.12 849 25.07 -1.2 29.8 58 -8.5 16.6
16:10 1020 30.12 849 25.07 -1.7 28.9 59 -8.7 16.4
16:15 1020 30.12 849 25.07 -2.3 27.9 61 -8.9 16
16:20 1020 30.12 849 25.07 -2.4 27.6 61 -9 15.8
16:25 1020 30.12 849 25.07 -2.7 27.1 62 -9 15.8
16:30 1020 30.12 849 25.07 -2.9 26.8 63 -9 15.8
16:35 1020 30.12 849 25.07 -2.8 26.9 62 -9.1 15.7
16:40 1020 30.12 849 25.07 -3 26.5 64 -8.9 15.9
16:45 1020 30.12 849 25.07 -3 26.6 66 -8.5 16.6
16:50 1020 30.12 849 25.07 -3.1 26.5 66 -8.6 16.5
16:55 1020 30.12 849 25.07 -3.3 26.1 66 -8.8 16.2
17:00 1020 30.12 849 25.07 -3.3 26 66 -8.8 16.2
17:05 1020 30.12 849 25.07 -3.7 25.4 67 -9 15.8
17:10 1020 30.12 849 25.07 -3.8 25.1 67 -9.1 15.6
17:15 1020 30.12 849 25.07 -3.8 25.2 68 -8.9 16
17:20 1020 30.12 849 25.07 -3.8 25.2 68 -8.8 16.1
17:25 1020 30.12 849 25.07 -3.8 25.2 67 -9.1 15.7
17:30 1020 30.12 849 25.07 -3.8 25.2 67 -9 15.7
17:35 1019 30.09 849 25.07 -3.7 25.4 67 -8.9 15.9
17:40 1019 30.09 849 25.07 -3.8 25.2 68 -8.8 16.1
17:45 1019 30.09 849 25.07 -3.9 24.9 69 -8.7 16.3
17:50 1019 30.09 849 25.07 -4.2 24.5 71 -8.7 16.4
17:55 1019 30.09 848 25.04 -4.2 24.5 72 -8.5 16.6
18:00 1019 30.09 848 25.04 -4.2 24.5 72 -8.6 16.6
18:05 1019 30.09 848 25.04 -4.2 24.5 72 -8.5 16.7
18:10 1019 30.09 848 25.04 -4.2 24.5 72 -8.5 16.7
18:15 1019 30.09 848 25.04 -4.2 24.5 72 -8.5 16.7
18:20 1019 30.09 848 25.04 -4.1 24.6 71 -8.7 16.4
18:25 1019 30.09 848 25.04 -4.1 24.7 71 -8.6 16.5
18:30 1019 30.09 848 25.04 -3.9 24.9 70 -8.6 16.6
18:35 1019 30.09 848 25.04 -3.9 25 69 -8.8 16.2
18:40 1018 30.06 848 25.04 -3.9 24.9 68 -9.1 15.7
18:45 1018 30.06 847 25.01 -3.9 25 67 -9.1 15.6
18:50 1018 30.06 847 25.01 -4 24.8 68 -9.1 15.6
18:55 1018 30.06 847 25.01 -4 24.7 67 -9.3 15.3
19:00 1018 30.06 847 25.01 -4 24.9 67 -9.2 15.4
19:05 1018 30.06 847 25.01 -3.8 25.2 67 -9.1 15.5
19:10 1017 30.03 847 25.01 -3.6 25.4 66 -9.1 15.5
19:15 1017 30.03 846 24.98 -3.6 25.6 66 -9.1 15.7
19:20 1017 30.03 846 24.98 -3.2 26.3 61 -9.7 14.6
19:25 1017 30.03 846 24.98 -2.6 27.2 59 -9.7 14.6
19:30 1017 30.03 846 24.98 -2.3 27.8 57 -9.8 14.4
19:35 1017 30.03 846 24.98 -2.1 28.2 58 -9.3 15.3
19:40 1017 30.03 846 24.98 -2.4 27.8 59 -9.4 15.1
19:45 1017 30.03 846 24.98 -2.3 27.9 56 -9.9 14.2
19:50 1017 30.03 846 24.98 -1.8 28.8 54 -9.9 14.2
19:55 1017 30.03 846 24.98 -1.6 29.1 52 -10.3 13.5
20:00 1017 30.03 846 24.98 -1.6 29.2 57 -8.9 15.9
20:05 1016 30 846 24.98 -1.6 29.1 57 -9 15.8
20:10 1016 30 846 24.98 -1.7 29 60 -8.4 16.9
20:15 1016 30 846 24.98 -2.3 27.9 61 -8.8 16.2
20:20 1016 30 846 24.98 -2.6 27.4 64 -8.5 16.8
20:25 1016 30 845 24.95 -2.9 26.8 68 -7.9 17.8
20:30 1016 30 845 24.95 -3.3 26.1 68 -8.3 17
20:35 1016 30 845 24.95 -3.2 26.2 69 -8.2 17.3
20:40 1016 30 845 24.95 -3 26.7 68 -8.1 17.4
20:45 1016 30 845 24.95 -3 26.6 72 -7.4 18.6
20:50 1016 30 845 24.95 -3.5 25.6 74 -7.6 18.3
20:55 1016 30 845 24.95 -3.7 25.3 73 -7.8 17.9
21:00 1016 30 845 24.95 -3.6 25.5 71 -8.1 17.4
21:05 1016 30 845 24.95 -3.6 25.6 67 -8.9 16
21:10 1016 30 845 24.95 -3.5 25.6 71 -8.2 17.3
21:15 1016 30 845 24.95 -3.6 25.5 67 -8.8 16.2
21:20 1015 29.97 845 24.95 -3.6 25.5 67 -8.9 15.9
21:25 1015 29.97 845 24.95 -3.8 25.2 67 -9.1 15.6
21:30 1015 29.97 845 24.95 -3.8 25.2 70 -8.4 16.9
21:35 1015 29.97 844 24.92 -3.7 25.3 71 -8.2 17.2
21:40 1015 29.97 844 24.92 -3.9 25.1 70 -8.6 16.5
21:45 1015 29.97 844 24.92 -3.8 25.1 72 -8.2 17.3
21:50 1015 29.97 844 24.92 -3.9 25 69 -8.8 16.2
21:55 1015 29.97 844 24.92 -3.5 25.7 66 -9 15.8
22:00 1015 29.97 844 24.92 -3.4 25.9 67 -8.7 16.3
22:05 1014 29.94 844 24.92 -3.5 25.7 68 -8.5 16.7
22:10 1014 29.94 844 24.92 -3.6 25.6 62 -9.8 14.4
22:15 1014 29.94 844 24.92 -2.8 27 57 -10.1 13.8
22:20 1014 29.94 843 24.89 -2.3 27.9 60 -9.1 15.6
22:25 1014 29.94 843 24.89 -2.5 27.4 60 -9.4 15.1
22:30 1014 29.94 843 24.89 -2.5 27.5 59 -9.4 15
22:35 1014 29.94 843 24.89 -2.3 27.8 59 -9.4 15.1
22:40 1014 29.94 843 24.89 -2 28.3 52 -10.6 12.9
22:45 1014 29.94 843 24.89 -1.3 29.6 50 -10.5 13.2
22:50 1013 29.91 843 24.89 -1.2 29.9 51 -10.2 13.7
22:55 1013 29.91 842 24.86 -0.8 30.5 47 -10.7 12.8
23:00 1013 29.91 842 24.86 -0.8 30.6 46 -11.1 12.1
23:05 1013 29.91 842 24.86 -0.3 31.4 43 -11.6 11.2
23:10 1013 29.91 842 24.86 -0 32 44 -10.9 12.3
23:15 1013 29.91 842 24.86 -0 32 44 -10.8 12.6
23:20 1013 29.91 842 24.86 0.1 32.2 42 -11.4 11.4
23:25 1013 29.91 842 24.86 0.2 32.4 43 -10.9 12.3
23:30 1013 29.91 842 24.86 0.3 32.5 41 -11.6 11.1
23:35 1013 29.91 842 24.86 0.4 32.8 41 -11.2 11.8
23:40 1013 29.91 842 24.86 0.4 32.7 44 -10.6 12.9
23:45 1013 29.91 842 24.86 0.3 32.5 43 -10.8 12.5
23:50 1013 29.91 842 24.86 0.2 32.3 44 -10.8 12.5
23:55 1013 29.91 842 24.86 0.2 32.3 41 -11.4 11.4
24:00 1013 29.91 842 24.86 0.4 32.8 41 -11.4 11.5